createdAt,value
2018-01-08T00:02:23.574Z,99.90
2018-01-08T00:04:51.089Z,99.90
2018-01-08T00:07:18.611Z,99.90
2018-01-08T00:09:46.906Z,99.90
2018-01-08T00:12:14.464Z,99.90
2018-01-08T00:14:42.744Z,99.90
2018-01-08T00:17:10.246Z,99.90
2018-01-08T00:19:37.767Z,99.90
2018-01-08T00:22:05.290Z,99.90
2018-01-08T00:24:32.803Z,99.90
2018-01-08T00:27:00.368Z,99.90
2018-01-08T00:29:27.850Z,99.90
2018-01-08T00:31:55.364Z,99.90
2018-01-08T00:34:22.898Z,99.90
2018-01-08T00:36:51.175Z,99.90
2018-01-08T00:39:19.423Z,99.90
2018-01-08T00:41:46.944Z,99.90
2018-01-08T00:44:14.445Z,99.90
2018-01-08T00:46:41.994Z,99.90
2018-01-08T00:49:09.492Z,99.90
2018-01-08T00:51:37.760Z,99.90
2018-01-08T00:54:06.051Z,99.90
2018-01-08T00:56:33.558Z,99.90
2018-01-08T00:59:01.080Z,99.90
2018-01-08T01:01:28.591Z,99.90
2018-01-08T01:03:56.086Z,99.90
2018-01-08T01:06:23.597Z,99.90
2018-01-08T01:08:51.098Z,99.90
2018-01-08T01:11:18.606Z,99.90
2018-01-08T01:13:46.155Z,99.90
2018-01-08T01:16:13.641Z,99.90
2018-01-08T01:18:41.137Z,99.90
2018-01-08T01:21:08.654Z,99.90
2018-01-08T01:23:36.177Z,99.90
2018-01-08T01:26:03.695Z,99.90
2018-01-08T01:28:31.979Z,99.90
2018-01-08T01:31:00.264Z,99.90
2018-01-08T01:33:27.802Z,99.90
2018-01-08T01:35:56.073Z,99.90
2018-01-08T01:38:24.358Z,99.90
2018-01-08T01:40:52.664Z,99.90
2018-01-08T01:43:20.162Z,99.90
2018-01-08T01:45:47.690Z,99.90
2018-01-08T01:48:15.300Z,99.90
2018-01-08T01:50:43.607Z,99.90
2018-01-08T01:53:11.114Z,99.90
2018-01-08T01:55:38.610Z,99.90
2018-01-08T01:58:06.899Z,99.90
2018-01-08T02:00:34.388Z,99.90
2018-01-08T02:03:01.903Z,99.90
2018-01-08T02:05:30.199Z,99.90
2018-01-08T02:07:57.711Z,99.90
2018-01-08T02:10:25.219Z,99.90
2018-01-08T02:12:52.712Z,99.90
2018-01-08T02:15:20.234Z,99.90
2018-01-08T02:17:47.737Z,99.90
2018-01-08T02:20:15.268Z,99.90
2018-01-08T02:22:42.752Z,99.90
2018-01-08T02:25:10.264Z,99.90
2018-01-08T02:27:37.794Z,99.90
2018-01-08T02:30:06.061Z,99.90
2018-01-08T02:32:33.557Z,99.90
2018-01-08T02:35:01.104Z,99.90
2018-01-08T02:37:28.601Z,99.90
2018-01-08T02:39:56.097Z,99.90
2018-01-08T02:42:23.622Z,99.90
2018-01-08T02:44:51.130Z,99.90
2018-01-08T02:47:18.676Z,99.90
2018-01-08T02:49:46.958Z,99.90
2018-01-08T02:52:15.210Z,99.90
2018-01-08T02:54:42.730Z,99.90
2018-01-08T02:57:10.232Z,99.90
2018-01-08T02:59:37.766Z,99.90
2018-01-08T03:02:05.280Z,99.90
2018-01-08T03:04:33.555Z,99.90
2018-01-08T03:07:01.103Z,99.90
2018-01-08T03:09:29.356Z,99.90
2018-01-08T03:11:56.860Z,99.90
2018-01-08T03:14:24.363Z,99.90
2018-01-08T03:16:51.864Z,99.90
2018-01-08T03:19:20.132Z,99.90
2018-01-08T03:21:48.409Z,99.90
2018-01-08T03:24:16.698Z,99.90
2018-01-08T03:26:44.221Z,99.90
2018-01-08T03:29:11.733Z,99.90
2018-01-08T03:31:39.264Z,99.90
2018-01-08T03:34:07.521Z,99.90
2018-01-08T03:36:35.052Z,99.90
2018-01-08T03:39:02.597Z,99.90
2018-01-08T03:41:30.090Z,99.90
2018-01-08T03:43:57.587Z,99.90
2018-01-08T03:46:25.115Z,99.90
2018-01-08T03:48:53.422Z,99.90
2018-01-08T03:51:20.923Z,99.90
2018-01-08T03:53:48.434Z,99.90
2018-01-08T03:56:15.950Z,99.90
2018-01-08T03:58:43.452Z,99.90
2018-01-08T04:01:10.969Z,99.90
2018-01-08T04:03:38.500Z,99.90
2018-01-08T04:06:06.000Z,99.90
2018-01-08T04:08:34.298Z,99.90
2018-01-08T04:11:02.553Z,99.90
2018-01-08T04:13:30.814Z,99.90
2018-01-08T04:15:58.339Z,99.90
2018-01-08T04:18:25.853Z,99.90
2018-01-08T04:20:54.147Z,99.90
2018-01-08T04:23:21.652Z,99.90
2018-01-08T04:25:49.152Z,99.90
2018-01-08T04:28:17.429Z,99.90
2018-01-08T04:30:45.706Z,99.90
2018-01-08T04:33:13.985Z,99.90
2018-01-08T04:35:42.242Z,99.90
2018-01-08T04:38:10.531Z,99.90
2018-01-08T04:40:38.809Z,99.90
2018-01-08T04:43:07.088Z,99.90
2018-01-08T04:45:35.356Z,99.90
2018-01-08T04:48:03.643Z,99.90
2018-01-08T04:50:31.146Z,99.90
2018-01-08T04:52:58.651Z,99.90
2018-01-08T04:55:26.913Z,99.90
2018-01-08T04:57:54.441Z,99.90
2018-01-08T05:00:21.969Z,99.90
2018-01-08T05:02:49.474Z,99.90
2018-01-08T05:05:16.988Z,99.90
2018-01-08T05:07:44.481Z,99.90
2018-01-08T05:10:11.982Z,99.90
2018-01-08T05:12:40.265Z,99.90
2018-01-08T05:15:08.524Z,99.90
2018-01-08T05:17:36.837Z,99.90
2018-01-08T05:20:04.358Z,99.90
2018-01-08T05:22:32.631Z,99.90
2018-01-08T05:25:00.907Z,99.90
2018-01-08T05:27:28.426Z,99.90
2018-01-08T05:29:55.929Z,99.90
2018-01-08T05:32:24.217Z,99.90
2018-01-08T05:34:52.464Z,99.90
2018-01-08T05:37:20.736Z,99.90
2018-01-08T05:39:48.253Z,99.90
2018-01-08T05:42:15.750Z,99.90
2018-01-08T05:44:43.270Z,99.90
2018-01-08T05:47:10.782Z,99.90
2018-01-08T05:49:39.075Z,99.90
2018-01-08T05:52:07.346Z,99.90
2018-01-08T05:54:35.597Z,99.90
2018-01-08T05:57:03.134Z,99.90
2018-01-08T05:59:30.638Z,99.90
2018-01-08T06:01:58.913Z,99.90
2018-01-08T06:04:27.208Z,99.90
2018-01-08T06:06:54.709Z,99.90
2018-01-08T06:09:22.196Z,99.90
2018-01-08T06:11:49.858Z,99.90
2018-01-08T06:14:17.498Z,99.90
2018-01-08T06:16:45.083Z,99.90
2018-01-08T06:19:12.717Z,99.90
2018-01-08T06:21:40.313Z,99.90
2018-01-08T06:24:08.630Z,99.90
2018-01-08T06:26:36.153Z,99.90
2018-01-08T06:29:04.480Z,99.90
2018-01-08T06:31:32.060Z,99.90
2018-01-08T06:33:59.600Z,99.90
2018-01-08T06:36:27.209Z,99.90
2018-01-08T06:38:54.804Z,99.90
2018-01-08T06:41:22.371Z,99.90
2018-01-08T06:43:49.926Z,99.90
2018-01-08T06:46:17.426Z,99.90
2018-01-08T06:48:44.912Z,99.90
2018-01-08T06:51:12.466Z,99.90
2018-01-08T06:53:39.975Z,99.90
2018-01-08T06:56:07.464Z,99.90
2018-01-08T06:58:35.758Z,99.90
2018-01-08T07:01:04.044Z,99.90
2018-01-08T07:03:31.535Z,99.90
2018-01-08T07:05:59.056Z,99.90
2018-01-08T07:08:26.589Z,99.90
2018-01-08T07:10:54.114Z,99.90
2018-01-08T07:13:21.627Z,99.90
2018-01-08T07:15:49.146Z,99.90
2018-01-08T07:18:16.667Z,99.90
2018-01-08T07:20:44.211Z,99.90
2018-01-08T07:23:11.720Z,99.90
2018-01-08T07:25:39.221Z,99.90
2018-01-08T07:28:07.509Z,99.90
2018-01-08T07:30:35.031Z,99.90
2018-01-08T07:33:02.535Z,99.90
2018-01-08T07:35:30.073Z,99.90
2018-01-08T07:37:57.601Z,99.90
2018-01-08T07:40:25.125Z,99.90
2018-01-08T07:42:52.649Z,99.90
2018-01-08T07:45:20.908Z,99.90
2018-01-08T07:47:49.205Z,99.90
2018-01-08T07:50:16.743Z,99.90
2018-01-08T07:52:45.005Z,99.90
2018-01-08T07:55:12.517Z,99.90
2018-01-08T07:57:40.043Z,99.90
2018-01-08T08:00:08.314Z,99.90
2018-01-08T08:02:36.629Z,99.90
2018-01-08T08:05:04.125Z,99.90
2018-01-08T08:07:31.634Z,99.90
2018-01-08T08:10:00.112Z,99.90
2018-01-08T08:12:27.620Z,99.90
2018-01-08T08:14:55.125Z,99.90
2018-01-08T08:17:22.639Z,99.90
2018-01-08T08:19:50.136Z,99.90
2018-01-08T08:22:18.453Z,99.90
2018-01-08T08:24:45.965Z,99.90
2018-01-08T08:27:14.224Z,99.90
2018-01-08T08:29:41.766Z,99.90
2018-01-08T08:32:09.255Z,99.90
2018-01-08T08:34:37.570Z,99.90
2018-01-08T08:37:05.095Z,99.90
2018-01-08T08:39:33.365Z,99.90
2018-01-08T08:42:01.645Z,99.90
2018-01-08T08:44:29.930Z,99.90
2018-01-08T08:46:57.436Z,99.90
2018-01-08T08:49:24.953Z,99.90
2018-01-08T08:51:52.489Z,99.90
2018-01-08T08:54:20.769Z,99.90
2018-01-08T08:56:49.042Z,99.90
2018-01-08T08:59:17.330Z,99.90
2018-01-08T09:01:45.608Z,99.90
2018-01-08T09:04:13.895Z,99.90
2018-01-08T09:06:41.403Z,99.90
2018-01-08T09:09:08.918Z,99.90
2018-01-08T09:11:36.451Z,99.90
2018-01-08T09:14:04.726Z,99.90
2018-01-08T09:16:32.982Z,99.90
2018-01-08T09:19:00.498Z,99.90
2018-01-08T09:21:28.003Z,99.90
2018-01-08T09:23:55.551Z,99.90
2018-01-08T09:26:23.068Z,99.90
2018-01-08T09:28:50.560Z,99.90
2018-01-08T09:31:18.088Z,99.90
2018-01-08T09:33:45.608Z,99.90
2018-01-08T09:36:13.905Z,99.90
2018-01-08T09:38:41.419Z,99.90
2018-01-08T09:41:08.926Z,99.90
2018-01-08T09:43:36.442Z,99.90
2018-01-08T09:46:03.970Z,99.90
2018-01-08T09:48:31.488Z,99.90
2018-01-08T09:50:59.810Z,99.90
2018-01-08T09:53:27.325Z,99.90
2018-01-08T09:55:54.873Z,99.90
2018-01-08T09:58:23.152Z,99.90
2018-01-08T10:00:51.465Z,99.90
2018-01-08T10:03:31.442Z,99.90
2018-01-08T10:06:10.709Z,99.90
2018-01-08T10:08:50.875Z,99.80
2018-01-08T10:11:30.886Z,99.90
2018-01-08T10:14:10.490Z,99.90
2018-01-08T10:16:50.717Z,99.90
2018-01-08T10:19:30.825Z,99.90
2018-01-08T10:21:58.367Z,99.90
2018-01-08T10:24:25.869Z,99.80
2018-01-08T10:26:53.367Z,99.70
2018-01-08T10:29:20.901Z,99.90
2018-01-08T10:31:49.177Z,99.80
2018-01-08T10:34:17.462Z,99.90
2018-01-08T10:36:45.720Z,99.80
2018-01-08T10:39:13.241Z,99.80
2018-01-08T10:41:46.235Z,99.90
2018-01-08T10:44:19.478Z,99.90
2018-01-08T10:46:53.429Z,99.90
2018-01-08T10:49:26.614Z,99.90
2018-01-08T10:51:53.645Z,99.90
2018-01-08T10:54:22.682Z,99.90
2018-01-08T10:56:50.202Z,99.90
2018-01-08T10:59:17.731Z,99.90
2018-01-08T11:04:49.150Z,99.60
2018-01-08T11:07:16.656Z,99.50
2018-01-08T11:09:44.937Z,99.00
2018-01-08T11:12:13.228Z,98.80
2018-01-08T11:14:40.755Z,98.80
2018-01-08T11:17:08.263Z,98.80
2018-01-08T11:19:35.795Z,98.90
2018-01-08T11:22:04.099Z,98.90
2018-01-08T11:24:31.669Z,98.90
2018-01-08T11:26:59.172Z,98.70
2018-01-08T11:29:27.472Z,98.30
2018-01-08T11:31:55.003Z,98.30
2018-01-08T11:34:22.838Z,98.20
2018-01-08T11:36:50.499Z,98.20
2018-01-08T11:39:18.112Z,97.90
2018-01-08T11:41:46.376Z,97.70
2018-01-08T11:44:14.683Z,97.40
2018-01-08T11:46:42.208Z,97.90
2018-01-08T11:49:10.491Z,97.40
2018-01-08T11:51:38.800Z,97.60
2018-01-08T11:54:06.285Z,97.50
2018-01-08T11:56:33.812Z,97.60
2018-01-08T11:59:01.328Z,97.60
2018-01-08T12:01:28.843Z,97.70
2018-01-08T12:03:56.370Z,97.80
2018-01-08T12:06:24.652Z,97.50
2018-01-08T12:08:52.184Z,97.50
2018-01-08T12:11:19.710Z,97.10
2018-01-08T12:13:47.222Z,96.70
2018-01-08T12:16:14.774Z,96.60
2018-01-08T12:18:43.646Z,96.30
2018-01-08T12:21:11.165Z,96.30
2018-01-08T12:23:38.700Z,96.40
2018-01-08T12:26:06.235Z,96.50
2018-01-08T12:28:34.584Z,96.20
2018-01-08T12:31:02.217Z,96.20
2018-01-08T12:33:29.825Z,96.30
2018-01-08T12:35:58.151Z,96.60
2018-01-08T12:38:25.657Z,96.60
2018-01-08T12:40:53.175Z,96.40
2018-01-08T12:43:20.713Z,96.50
2018-01-08T12:45:48.231Z,96.10
2018-01-08T12:48:15.774Z,95.90
2018-01-08T12:50:43.302Z,95.30
2018-01-08T12:53:10.818Z,94.50
2018-01-08T12:55:39.159Z,93.40
2018-01-08T12:58:06.694Z,93.40
2018-01-08T13:00:34.212Z,92.60
2018-01-08T13:03:02.550Z,92.40
2018-01-08T13:05:30.051Z,92.40
2018-01-08T13:07:58.351Z,92.00
2018-01-08T13:10:25.873Z,92.00
2018-01-08T13:12:53.382Z,91.90
2018-01-08T13:15:20.925Z,92.00
2018-01-08T13:17:48.447Z,92.00
2018-01-08T13:20:15.957Z,92.10
2018-01-08T13:22:43.520Z,92.20
2018-01-08T13:25:11.048Z,92.60
2018-01-08T13:27:39.363Z,93.10
2018-01-08T13:30:06.903Z,93.10
2018-01-08T13:32:34.439Z,93.70
2018-01-08T13:35:02.708Z,93.90
2018-01-08T13:37:30.989Z,94.20
2018-01-08T13:39:59.317Z,94.10
2018-01-08T13:42:26.840Z,94.10
2018-01-08T13:44:54.354Z,94.30
2018-01-08T13:47:21.921Z,94.30
2018-01-08T13:49:49.428Z,94.60
2018-01-08T13:52:16.992Z,94.60
2018-01-08T13:54:44.538Z,94.60
2018-01-08T13:57:12.066Z,94.90
2018-01-08T13:59:39.587Z,95.00
2018-01-08T14:02:07.131Z,95.10
2018-01-08T14:04:34.684Z,95.30
2018-01-08T14:07:02.201Z,95.50
2018-01-08T14:09:29.698Z,96.20
2018-01-08T14:11:57.261Z,96.60
2018-01-08T14:14:24.783Z,96.70
2018-01-08T14:16:53.109Z,97.20
2018-01-08T14:19:20.612Z,97.20
2018-01-08T14:21:48.110Z,97.50
2018-01-08T14:24:15.632Z,97.60
2018-01-08T14:26:43.894Z,97.70
2018-01-08T14:29:11.433Z,97.70
2018-01-08T14:34:12.950Z,97.90
2018-01-08T14:36:41.233Z,98.10
2018-01-08T14:39:09.500Z,98.30
2018-01-08T14:41:37.774Z,98.60
2018-01-08T14:44:06.052Z,98.10
2018-01-08T14:46:34.350Z,98.10
2018-01-08T14:49:01.863Z,98.10
2018-01-08T14:51:29.378Z,98.00
2018-01-08T14:53:56.896Z,98.30
2018-01-08T14:56:25.156Z,98.40
2018-01-08T14:58:52.672Z,98.40
2018-01-08T15:01:20.171Z,98.40
2018-01-08T15:03:47.671Z,98.30
2018-01-08T15:06:15.214Z,98.40
2018-01-08T15:08:43.500Z,98.20
2018-01-08T15:11:11.025Z,98.20
2018-01-08T15:13:38.569Z,98.10
2018-01-08T15:16:06.100Z,98.30
2018-01-08T15:18:33.594Z,98.40
2018-01-08T15:21:01.109Z,98.60
2018-01-08T15:23:28.649Z,98.70
2018-01-08T15:25:56.948Z,98.50
2018-01-08T15:28:24.482Z,98.50
2018-01-08T15:30:52.739Z,98.70
2018-01-08T15:33:20.246Z,98.70
2018-01-08T15:35:47.767Z,98.80
2018-01-08T15:38:16.025Z,99.00
2018-01-08T15:40:43.538Z,99.10
2018-01-08T15:43:11.039Z,99.00
2018-01-08T15:45:38.595Z,99.10
2018-01-08T15:48:06.119Z,99.00
2018-01-08T15:50:33.626Z,99.00
2018-01-08T15:53:01.914Z,99.20
2018-01-08T15:55:30.192Z,99.20
2018-01-08T15:57:58.744Z,99.30
2018-01-08T16:00:26.252Z,99.30
2018-01-08T16:02:53.801Z,99.00
2018-01-08T16:05:22.104Z,99.10
2018-01-08T16:07:49.597Z,99.10
2018-01-08T16:10:17.172Z,99.20
2018-01-08T16:12:45.505Z,99.30
2018-01-08T16:15:13.012Z,99.20
2018-01-08T16:17:41.321Z,99.30
2018-01-08T16:20:08.821Z,99.30
2018-01-08T16:22:36.341Z,99.30
2018-01-08T16:25:03.890Z,99.40
2018-01-08T16:27:31.392Z,99.40
2018-01-08T16:29:58.902Z,99.40
2018-01-08T16:32:27.207Z,99.70
2018-01-08T16:34:54.714Z,99.70
2018-01-08T16:37:22.215Z,99.70
2018-01-08T16:39:49.759Z,99.70
2018-01-08T16:42:17.278Z,99.70
2018-01-08T16:44:44.775Z,99.90
2018-01-08T16:47:12.303Z,99.90
2018-01-08T16:49:40.592Z,99.90
2018-01-08T16:52:08.865Z,99.90
2018-01-08T16:54:37.182Z,99.90
2018-01-08T16:57:04.702Z,99.90
2018-01-08T16:59:32.976Z,99.90
2018-01-08T17:02:01.244Z,99.90
2018-01-08T17:04:28.741Z,99.90
2018-01-08T17:06:56.303Z,99.90
2018-01-08T17:09:23.819Z,99.90
2018-01-08T17:11:51.321Z,99.90
2018-01-08T17:14:18.828Z,99.90
2018-01-08T17:16:46.331Z,99.90
2018-01-08T17:19:13.852Z,99.90
2018-01-08T17:21:41.390Z,99.90
2018-01-08T17:24:08.906Z,99.90
2018-01-08T17:26:36.426Z,99.90
2018-01-08T17:29:03.952Z,99.90
2018-01-08T17:31:31.458Z,99.90
2018-01-08T17:33:59.750Z,99.90
2018-01-08T17:36:27.258Z,99.90
2018-01-08T17:38:54.816Z,99.90
2018-01-08T17:41:22.343Z,99.90
2018-01-08T17:43:49.851Z,99.90
2018-01-08T17:46:17.372Z,99.90
2018-01-08T17:48:44.879Z,99.90
2018-01-08T17:51:13.226Z,99.90
2018-01-08T17:53:40.716Z,99.90
2018-01-08T17:56:08.219Z,99.90
2018-01-08T17:58:35.769Z,99.90
2018-01-08T18:01:03.316Z,99.90
2018-01-08T18:03:30.842Z,99.90
2018-01-08T18:05:59.151Z,99.90
2018-01-08T18:08:26.690Z,99.90
2018-01-08T18:10:54.962Z,99.90
2018-01-08T18:13:23.224Z,99.90
2018-01-08T18:15:50.754Z,99.90
2018-01-08T18:18:18.243Z,99.90
2018-01-08T18:20:45.775Z,99.90
2018-01-08T18:23:13.290Z,99.90
2018-01-08T18:25:41.572Z,99.90
2018-01-08T18:28:09.091Z,99.90
2018-01-08T18:30:36.592Z,99.90
2018-01-08T18:33:04.119Z,99.90
2018-01-08T18:35:31.611Z,99.90
2018-01-08T18:37:59.151Z,99.90
2018-01-08T18:40:27.419Z,99.90
2018-01-08T18:42:55.707Z,99.90
2018-01-08T18:45:23.997Z,99.90
2018-01-08T18:47:51.511Z,99.90
2018-01-08T18:50:19.014Z,99.90
2018-01-08T18:52:46.552Z,99.90
2018-01-08T18:55:15.824Z,99.90
2018-01-08T18:57:43.310Z,99.90
2018-01-08T19:00:11.601Z,99.90
2018-01-08T19:02:39.108Z,99.90
2018-01-08T19:05:06.677Z,99.90
2018-01-08T19:07:34.239Z,99.90
2018-01-08T19:10:01.772Z,99.90
2018-01-08T19:12:29.368Z,99.90
2018-01-08T19:14:58.500Z,99.90
2018-01-08T19:17:26.047Z,99.90
2018-01-08T19:19:53.652Z,99.90
2018-01-08T19:22:21.593Z,99.90
2018-01-08T19:24:49.157Z,99.90
2018-01-08T19:27:17.747Z,99.90
2018-01-08T19:29:45.307Z,99.90
2018-01-08T19:32:12.872Z,99.90
2018-01-08T19:34:40.485Z,99.90
2018-01-08T19:37:08.810Z,99.90
2018-01-08T19:39:36.383Z,99.90
2018-01-08T19:42:04.796Z,99.90
2018-01-08T19:44:33.121Z,99.90
2018-01-08T19:47:00.710Z,99.90
2018-01-08T19:49:29.401Z,99.90
2018-01-08T19:51:56.960Z,99.90
2018-01-08T19:54:24.577Z,99.90
2018-01-08T19:56:52.153Z,99.90
2018-01-08T19:59:20.726Z,99.90
2018-01-08T20:01:48.290Z,99.90
2018-01-08T20:04:15.852Z,99.90
2018-01-08T20:06:43.673Z,99.90
2018-01-08T20:09:11.997Z,99.90
2018-01-08T20:11:39.554Z,99.90
2018-01-08T20:14:07.123Z,99.90
2018-01-08T20:16:34.716Z,99.90
2018-01-08T20:19:03.896Z,99.90
2018-01-08T20:21:31.468Z,99.90
2018-01-08T20:23:59.052Z,99.90
2018-01-08T20:26:27.416Z,99.90
2018-01-08T20:28:54.994Z,99.90
2018-01-08T20:31:23.318Z,99.90
2018-01-08T20:33:50.910Z,99.90
2018-01-08T20:36:19.261Z,99.90
2018-01-08T20:38:46.832Z,99.90
2018-01-08T20:41:14.425Z,99.90
2018-01-08T20:43:42.753Z,99.90
2018-01-08T20:46:10.323Z,99.90
2018-01-08T20:48:37.909Z,99.90
2018-01-08T20:51:06.252Z,99.90
2018-01-08T20:53:33.833Z,99.90
2018-01-08T20:56:01.405Z,99.90
2018-01-08T20:58:29.729Z,99.90
2018-01-08T21:00:57.329Z,99.90
2018-01-08T21:03:24.862Z,99.90
2018-01-08T21:05:52.410Z,99.90
2018-01-08T21:08:19.966Z,99.90
2018-01-08T21:10:47.485Z,99.90
2018-01-08T21:13:15.828Z,99.90
2018-01-08T21:15:43.379Z,99.90
2018-01-08T21:18:10.897Z,99.90
2018-01-08T21:20:38.482Z,99.90
2018-01-08T21:23:06.002Z,99.90
2018-01-08T21:25:34.297Z,99.90
2018-01-08T21:28:01.805Z,99.90
2018-01-08T21:30:29.955Z,99.90
2018-01-08T21:32:57.483Z,99.90
2018-01-08T21:35:25.011Z,99.90
2018-01-08T21:37:52.554Z,99.90
2018-01-08T21:40:20.100Z,99.90
2018-01-08T21:42:47.617Z,99.90
2018-01-08T21:45:15.146Z,99.90
2018-01-08T21:47:42.663Z,99.90
2018-01-08T21:50:10.187Z,99.90
2018-01-08T21:52:38.499Z,99.90
2018-01-08T21:55:05.997Z,99.90
2018-01-08T21:57:33.552Z,99.90
2018-01-08T22:00:01.054Z,99.90
2018-01-08T22:02:28.585Z,99.90
2018-01-08T22:04:56.110Z,99.90
2018-01-08T22:07:23.671Z,99.90
2018-01-08T22:09:51.177Z,99.90
2018-01-08T22:12:19.456Z,99.90
2018-01-08T22:14:46.959Z,99.90
2018-01-08T22:17:14.467Z,99.90
2018-01-08T22:19:42.755Z,99.90
2018-01-08T22:22:10.269Z,99.90
2018-01-08T22:24:37.780Z,99.90
2018-01-08T22:27:05.305Z,99.90
2018-01-08T22:29:33.584Z,99.90
2018-01-08T22:32:01.874Z,99.90
2018-01-08T22:34:29.387Z,99.90
2018-01-08T22:36:56.905Z,99.90
2018-01-08T22:39:24.420Z,99.90
2018-01-08T22:41:51.918Z,99.90
2018-01-08T22:44:19.440Z,99.90
2018-01-08T22:46:46.948Z,99.90
2018-01-08T22:49:14.500Z,99.90
2018-01-08T22:51:42.000Z,99.90
2018-01-08T22:54:09.500Z,99.90
2018-01-08T22:56:37.805Z,99.90
2018-01-08T22:59:05.413Z,99.90
2018-01-08T23:01:32.936Z,99.90
2018-01-08T23:04:00.463Z,99.90
2018-01-08T23:06:28.546Z,99.90
2018-01-08T23:08:56.062Z,99.90
2018-01-08T23:11:23.568Z,99.90
2018-01-08T23:13:51.142Z,99.90
2018-01-08T23:16:18.637Z,99.90
2018-01-08T23:18:46.133Z,99.90
2018-01-08T23:21:13.724Z,99.90
2018-01-08T23:23:41.221Z,99.90
2018-01-08T23:26:08.779Z,99.90
2018-01-08T23:28:36.353Z,99.90
2018-01-08T23:31:04.611Z,99.90
2018-01-08T23:33:32.165Z,99.90
2018-01-08T23:35:59.730Z,99.90
2018-01-08T23:38:27.245Z,99.90
2018-01-08T23:40:54.737Z,99.90
2018-01-08T23:43:22.297Z,99.90
2018-01-08T23:45:49.811Z,99.90
2018-01-08T23:48:17.386Z,99.90
2018-01-08T23:50:44.902Z,99.90
2018-01-08T23:53:13.174Z,99.90
2018-01-08T23:55:41.526Z,99.90
2018-01-08T23:58:09.029Z,99.90
